createdAt,value
2023-01-03T00:00:48.633Z,88.35
2023-01-03T00:02:52.150Z,88.42
2023-01-03T00:04:55.484Z,87.54
2023-01-03T00:06:58.608Z,88.53
2023-01-03T00:09:02.825Z,88.74
2023-01-03T00:11:12.781Z,88.98
2023-01-03T00:13:14.956Z,88.13
2023-01-03T00:15:18.342Z,88.25
2023-01-03T00:17:22.905Z,89.04
2023-01-03T00:19:27.873Z,87.52
2023-01-03T00:21:31.070Z,88.82
2023-01-03T00:23:34.205Z,88.02
2023-01-03T00:25:37.382Z,88.59
2023-01-03T00:27:40.413Z,88.04
2023-01-03T00:29:43.817Z,87.92
2023-01-03T00:31:47.141Z,87.83
2023-01-03T00:33:51.961Z,89.09
2023-01-03T00:35:55.052Z,88.43
2023-01-03T00:37:58.202Z,87.78
2023-01-03T00:40:01.320Z,89.12
2023-01-03T00:42:04.616Z,88.56
2023-01-03T00:44:08.022Z,88.46
2023-01-03T00:46:12.759Z,88.90
2023-01-03T00:48:15.892Z,89.64
2023-01-03T00:50:20.435Z,88.58
2023-01-03T00:52:23.478Z,88.94
2023-01-03T00:54:26.641Z,90.11
2023-01-03T00:56:31.857Z,89.52
2023-01-03T00:58:36.089Z,90.36
2023-01-03T01:00:39.300Z,89.17
2023-01-03T01:02:42.591Z,90.58
2023-01-03T01:04:45.864Z,89.32
2023-01-03T01:06:53.671Z,90.40
2023-01-03T01:08:58.251Z,89.02
2023-01-03T01:11:04.103Z,89.81
2023-01-03T01:13:07.163Z,89.43
2023-01-03T01:15:10.871Z,89.57
2023-01-03T01:17:19.180Z,90.29
2023-01-03T01:19:27.525Z,89.15
2023-01-03T01:21:32.247Z,89.58
2023-01-03T01:23:39.136Z,90.34
2023-01-03T01:25:43.058Z,89.75
2023-01-03T01:27:46.333Z,89.46
2023-01-03T01:29:49.479Z,90.07
2023-01-03T01:31:52.641Z,89.92
2023-01-03T01:33:57.095Z,89.64
2023-01-03T01:36:00.235Z,89.88
2023-01-03T01:38:03.345Z,89.95
2023-01-03T01:40:09.474Z,89.53
2023-01-03T01:42:31.882Z,89.52
2023-01-03T01:44:53.438Z,89.55
2023-01-03T01:46:56.832Z,89.98
2023-01-03T01:49:05.347Z,90.35
2023-01-03T01:51:10.001Z,90.33
2023-01-03T01:53:16.688Z,90.09
2023-01-03T01:55:23.739Z,89.75
2023-01-03T01:57:27.156Z,90.16
2023-01-03T01:59:30.301Z,89.89
2023-01-03T02:01:34.946Z,90.38
2023-01-03T02:03:38.426Z,90.76
2023-01-03T02:05:46.350Z,90.64
2023-01-03T02:07:50.727Z,91.19
2023-01-03T02:09:56.882Z,90.99
2023-01-03T02:12:20.093Z,90.46
2023-01-03T02:14:38.493Z,89.84
2023-01-03T02:16:53.531Z,90.01
2023-01-03T02:19:03.720Z,90.91
2023-01-03T02:21:46.071Z,90.50
2023-01-03T02:24:15.826Z,91.51
2023-01-03T02:26:59.311Z,90.74
2023-01-03T02:29:19.031Z,91.27
2023-01-03T02:31:29.430Z,91.01
2023-01-03T02:33:37.611Z,90.19
2023-01-03T02:35:45.541Z,90.08
2023-01-03T02:37:54.586Z,90.77
2023-01-03T02:40:01.508Z,91.25
2023-01-03T02:42:27.833Z,90.71
2023-01-03T02:44:35.182Z,89.90
2023-01-03T02:46:45.010Z,90.52
2023-01-03T02:48:51.998Z,90.58
2023-01-03T02:50:57.881Z,90.66
2023-01-03T02:53:05.354Z,90.74
2023-01-03T02:55:12.724Z,90.85
2023-01-03T02:57:17.940Z,91.24
2023-01-03T02:59:24.591Z,90.61
2023-01-03T03:01:29.685Z,90.51
2023-01-03T03:03:37.971Z,90.10
2023-01-03T03:05:46.667Z,90.34
2023-01-03T03:07:49.831Z,91.31
2023-01-03T03:10:10.600Z,90.30
2023-01-03T03:12:30.979Z,90.44
2023-01-03T03:14:37.923Z,90.31
2023-01-03T03:16:52.985Z,90.30
2023-01-03T03:19:01.309Z,90.38
2023-01-03T03:21:22.798Z,90.37
2023-01-03T03:23:47.472Z,90.75
2023-01-03T03:25:55.262Z,90.41
2023-01-03T03:28:19.055Z,90.67
2023-01-03T03:30:24.006Z,91.14
2023-01-03T03:32:29.679Z,91.17
2023-01-03T03:34:39.193Z,91.78
2023-01-03T03:36:48.002Z,91.65
2023-01-03T03:38:51.852Z,91.64
2023-01-03T03:41:18.664Z,91.47
2023-01-03T03:43:44.593Z,90.38
2023-01-03T03:45:52.956Z,90.12
2023-01-03T03:48:00.768Z,90.66
2023-01-03T03:50:07.800Z,91.40
2023-01-03T03:52:15.058Z,91.25
2023-01-03T03:54:21.455Z,91.97
2023-01-03T03:56:28.339Z,92.33
2023-01-03T03:58:34.869Z,92.01
2023-01-03T04:00:40.563Z,92.95
2023-01-03T04:02:46.851Z,92.69
2023-01-03T04:04:51.343Z,93.09
2023-01-03T04:06:56.114Z,93.27
2023-01-03T04:08:59.730Z,92.92
2023-01-03T04:11:06.899Z,92.75
2023-01-03T04:13:10.129Z,93.41
2023-01-03T04:15:14.148Z,92.60
2023-01-03T04:17:17.579Z,92.73
2023-01-03T04:19:21.003Z,92.85
2023-01-03T04:21:24.308Z,92.70
2023-01-03T04:23:28.885Z,92.37
2023-01-03T04:25:32.161Z,92.32
2023-01-03T04:27:35.570Z,91.84
2023-01-03T04:29:39.633Z,91.59
2023-01-03T04:31:42.936Z,90.93
2023-01-03T04:33:46.274Z,90.89
2023-01-03T04:35:49.364Z,91.46
2023-01-03T04:37:52.680Z,90.68
2023-01-03T04:40:00.510Z,90.75
2023-01-03T04:42:23.557Z,90.39
2023-01-03T04:44:25.697Z,89.52
2023-01-03T04:46:29.796Z,90.19
2023-01-03T04:48:33.148Z,90.67
2023-01-03T04:50:36.395Z,91.03
2023-01-03T04:52:39.497Z,90.59
2023-01-03T04:54:43.025Z,91.51
2023-01-03T04:56:47.629Z,91.49
2023-01-03T04:58:50.882Z,91.54
2023-01-03T05:00:54.394Z,91.85
2023-01-03T05:02:57.587Z,92.61
2023-01-03T05:05:00.736Z,92.22
2023-01-03T05:07:03.946Z,91.40
2023-01-03T05:09:07.055Z,91.79
2023-01-03T05:11:10.295Z,91.37
2023-01-03T05:13:14.756Z,90.96
2023-01-03T05:15:17.974Z,89.67
2023-01-03T05:17:21.477Z,89.59
2023-01-03T05:19:24.778Z,88.99
2023-01-03T05:21:45.270Z,88.32
2023-01-03T05:24:05.823Z,89.49
2023-01-03T05:26:11.256Z,89.32
2023-01-03T05:28:17.786Z,89.90
2023-01-03T05:30:20.954Z,90.44
2023-01-03T05:32:25.156Z,91.18
2023-01-03T05:34:28.682Z,91.88
2023-01-03T05:36:31.819Z,91.26
2023-01-03T05:38:35.271Z,91.40
2023-01-03T05:40:41.482Z,92.02
2023-01-03T05:42:45.868Z,91.43
2023-01-03T05:44:50.528Z,92.21
2023-01-03T05:46:54.162Z,91.42
2023-01-03T05:48:57.246Z,90.47
2023-01-03T05:51:00.557Z,91.07
2023-01-03T05:53:04.703Z,90.12
2023-01-03T05:55:08.388Z,91.30
2023-01-03T05:57:11.691Z,90.63
2023-01-03T05:59:15.989Z,91.44
2023-01-03T06:01:21.404Z,91.09
2023-01-03T06:03:24.821Z,91.58
2023-01-03T06:05:30.575Z,90.97
2023-01-03T06:07:34.603Z,91.18
2023-01-03T06:09:38.269Z,91.36
2023-01-03T06:11:42.036Z,91.98
2023-01-03T06:13:45.668Z,90.01
2023-01-03T06:16:08.875Z,90.65
2023-01-03T06:18:12.617Z,90.12
2023-01-03T06:20:16.176Z,89.51
2023-01-03T06:22:19.421Z,90.56
2023-01-03T06:24:22.558Z,90.38
2023-01-03T06:26:26.593Z,90.39
2023-01-03T06:28:30.162Z,91.15
2023-01-03T06:30:33.866Z,91.05
2023-01-03T06:32:37.139Z,91.27
2023-01-03T06:34:42.483Z,91.76
2023-01-03T06:36:45.641Z,92.05
2023-01-03T06:38:49.202Z,91.74
2023-01-03T06:40:52.640Z,92.28
2023-01-03T06:42:55.817Z,91.78
2023-01-03T06:45:17.130Z,91.23
2023-01-03T06:47:52.030Z,91.04
2023-01-03T06:50:10.836Z,91.25
2023-01-03T06:52:33.864Z,91.11
2023-01-03T06:54:39.117Z,90.98
2023-01-03T06:56:42.392Z,91.73
2023-01-03T06:58:45.828Z,91.42
2023-01-03T07:00:48.952Z,92.32
2023-01-03T07:02:52.385Z,91.37
2023-01-03T07:04:58.079Z,92.38
2023-01-03T07:07:01.553Z,92.31
2023-01-03T07:09:05.968Z,92.53
2023-01-03T07:11:09.303Z,92.71
2023-01-03T07:13:30.130Z,92.67
2023-01-03T07:15:33.368Z,91.32
2023-01-03T07:17:36.691Z,91.48
2023-01-03T07:19:47.978Z,90.04
2023-01-03T07:21:52.657Z,89.49
2023-01-03T07:24:05.617Z,89.60
2023-01-03T07:26:15.367Z,90.64
2023-01-03T07:28:28.448Z,90.87
2023-01-03T07:30:40.722Z,90.75
2023-01-03T07:32:44.652Z,91.00
2023-01-03T07:34:50.511Z,91.14
2023-01-03T07:37:01.455Z,91.14
2023-01-03T07:39:10.733Z,92.32
2023-01-03T07:41:21.550Z,92.08
2023-01-03T07:43:38.250Z,92.21
2023-01-03T07:45:43.758Z,91.70
2023-01-03T07:47:48.558Z,91.52
2023-01-03T07:49:52.326Z,91.16
2023-01-03T07:51:57.753Z,91.60
2023-01-03T07:54:02.432Z,90.86
2023-01-03T07:56:12.568Z,92.13
2023-01-03T07:58:17.207Z,91.72
2023-01-03T08:00:22.268Z,91.74
2023-01-03T08:02:29.124Z,92.46
2023-01-03T08:04:34.125Z,92.47
2023-01-03T08:06:38.656Z,91.23
2023-01-03T08:08:44.310Z,91.53
2023-01-03T08:11:05.148Z,91.71
2023-01-03T08:13:18.599Z,91.54
2023-01-03T08:15:22.957Z,92.12
2023-01-03T08:17:29.025Z,91.48
2023-01-03T08:19:33.758Z,91.95
2023-01-03T08:21:37.980Z,92.42
2023-01-03T08:23:43.997Z,90.79
2023-01-03T08:25:47.994Z,90.53
2023-01-03T08:27:52.888Z,90.64
2023-01-03T08:29:56.355Z,91.11
2023-01-03T08:32:56.939Z,90.54
2023-01-03T08:35:01.306Z,90.76
2023-01-03T08:37:07.907Z,91.26
2023-01-03T08:39:16.451Z,91.32
2023-01-03T08:41:36.372Z,90.65
2023-01-03T08:43:51.520Z,90.34
2023-01-03T08:46:07.414Z,91.17
2023-01-03T08:48:15.475Z,91.37
2023-01-03T08:50:25.398Z,91.72
2023-01-03T08:52:37.726Z,90.29
2023-01-03T08:54:45.090Z,91.43
2023-01-03T08:56:48.670Z,91.83
2023-01-03T08:58:52.272Z,91.58
2023-01-03T09:00:55.842Z,92.40
2023-01-03T09:03:01.159Z,91.25
2023-01-03T09:05:05.449Z,92.00
2023-01-03T16:33:20.056Z,84.67
2023-01-03T16:35:23.721Z,84.92
2023-01-03T16:38:06.185Z,85.80
2023-01-03T16:40:17.366Z,85.65
